Time;durP1;ratioP1;P1;durP2;ratioP2;P2;SDS_P1;SDS_P2;PMS_P1;PMS_P2;Temp;Humidity;BMP_temperature;BMP_pressure;BME280_temperature;BME280_humidity;BME280_pressure;Samples;Min_cycle;Max_cycle;Signal;HPM_P1;HPM_P2
2021/12/23 00:01:47;;;;;;;17.52;11.57;;;-0.80;99.90;;;;;;5058994;28;20047;-81
2021/12/23 00:04:13;;;;;;;14.63;11.90;;;-0.80;99.90;;;;;;5058531;28;20043;-77
2021/12/23 00:06:40;;;;;;;17.70;13.68;;;-0.70;99.90;;;;;;5075997;28;20051;-81
2021/12/23 00:09:06;;;;;;;17.05;12.70;;;-0.70;99.90;;;;;;5075300;28;20040;-75
2021/12/23 00:11:41;;;;;;;17.73;12.10;;;-0.70;99.90;;;;;;5092975;28;20506;-80
2021/12/23 00:14:09;;;;;;;14.30;11.45;;;-0.70;99.90;;;;;;5075744;28;20040;-79
2021/12/23 00:16:55;;;;;;;14.85;12.18;;;-0.60;99.90;;;;;;5058338;28;20039;-79
2021/12/23 00:24:39;;;;;;;15.80;11.93;;;-0.60;99.90;;;;;;5075792;28;20048;-82
2021/12/23 00:27:05;;;;;;;16.65;12.82;;;-0.60;99.90;;;;;;5058963;28;20488;-74
2021/12/23 00:29:31;;;;;;;16.52;12.35;;;-0.60;99.90;;;;;;5075020;28;20067;-78
2021/12/23 00:31:56;;;;;;;18.33;12.57;;;-0.60;99.90;;;;;;5074960;28;20484;-74
2021/12/23 00:34:22;;;;;;;18.55;13.02;;;-0.60;99.90;;;;;;5075150;28;20044;-78
2021/12/23 00:36:48;;;;;;;17.80;12.93;;;-0.60;99.90;;;;;;5074307;28;20058;-78
2021/12/23 00:39:15;;;;;;;19.10;13.57;;;-0.60;99.90;;;;;;5075468;28;20047;-78
2021/12/23 00:41:43;;;;;;;17.23;12.55;;;-0.60;99.90;;;;;;5073723;28;20415;-77
2021/12/23 00:44:09;;;;;;;15.52;12.02;;;-0.60;99.90;;;;;;5074713;28;20044;-70
2021/12/23 00:46:35;;;;;;;16.92;12.77;;;-0.60;99.90;;;;;;5057904;28;20035;-75
2021/12/23 00:49:01;;;;;;;15.15;11.95;;;-0.50;99.90;;;;;;5057262;28;20123;-79
2021/12/23 00:51:29;;;;;;;15.40;11.68;;;-0.60;99.90;;;;;;5057925;28;20048;-78
2021/12/23 00:54:04;;;;;;;15.68;12.27;;;-0.50;99.90;;;;;;5074991;28;20048;-77
2021/12/23 00:56:30;;;;;;;17.42;12.93;;;-0.50;99.90;;;;;;5074091;28;20471;-78
2021/12/23 00:58:55;;;;;;;14.93;12.88;;;-0.50;99.90;;;;;;5071688;28;20098;-72
2021/12/23 01:01:21;;;;;;;17.65;13.23;;;-0.50;99.90;;;;;;5044654;28;20052;-76
2021/12/23 01:03:47;;;;;;;18.08;13.07;;;-0.40;99.90;;;;;;5074290;28;20759;-74
2021/12/23 01:06:12;;;;;;;16.83;12.27;;;-0.50;99.80;;;;;;5074678;28;20500;-77
2021/12/23 01:08:38;;;;;;;20.42;13.13;;;-0.50;99.80;;;;;;5075031;28;20047;-79
2021/12/23 01:11:04;;;;;;;16.13;12.70;;;-0.40;99.80;;;;;;5056773;28;20043;-78
2021/12/23 01:13:29;;;;;;;17.55;13.00;;;-0.50;99.80;;;;;;5074850;28;20066;-78
2021/12/23 01:16:13;;;;;;;18.23;13.20;;;-0.40;99.80;;;;;;5058160;28;20048;-77
2021/12/23 01:18:43;;;;;;;17.52;13.38;;;-0.40;99.80;;;;;;5054056;28;20048;-79
2021/12/23 01:21:16;;;;;;;17.95;12.82;;;-0.40;99.80;;;;;;5058039;28;20431;-73
2021/12/23 01:23:56;;;;;;;17.70;12.85;;;-0.50;99.70;;;;;;5057822;28;20047;-80
2021/12/23 01:26:22;;;;;;;16.65;13.27;;;-0.50;99.70;;;;;;5056748;28;20499;-80
2021/12/23 01:28:52;;;;;;;17.15;13.13;;;-0.40;99.70;;;;;;5074705;28;20058;-75
2021/12/23 01:31:18;;;;;;;20.98;13.10;;;-0.50;99.70;;;;;;5074310;28;20055;-81
2021/12/23 01:33:44;;;;;;;17.55;12.90;;;-0.50;99.70;;;;;;5056558;28;20488;-82
2021/12/23 01:36:10;;;;;;;18.23;13.02;;;-0.50;99.60;;;;;;5073283;28;20419;-81
2021/12/23 01:38:36;;;;;;;18.67;13.77;;;-0.50;99.70;;;;;;5057803;28;20054;-81
2021/12/23 01:41:02;;;;;;;22.15;14.30;;;-0.50;99.70;;;;;;5073197;28;20048;-80
2021/12/23 01:43:28;;;;;;;18.50;12.98;;;-0.50;99.80;;;;;;5073381;28;20055;-82
2021/12/23 01:45:53;;;;;;;19.85;13.63;;;-0.50;99.70;;;;;;5056876;28;20051;-83
2021/12/23 01:48:19;;;;;;;17.83;13.85;;;-0.50;99.70;;;;;;5056462;28;20067;-82
2021/12/23 01:50:46;;;;;;;22.95;14.68;;;-0.50;99.70;;;;;;5073873;28;20048;-81
2021/12/23 01:53:12;;;;;;;24.05;15.70;;;-0.50;99.70;;;;;;5072941;28;20177;-77
2021/12/23 01:55:38;;;;;;;24.38;14.18;;;-0.50;99.70;;;;;;5074021;28;20044;-81
2021/12/23 01:58:05;;;;;;;18.92;13.43;;;-0.40;99.70;;;;;;5073908;28;20408;-73
2021/12/23 02:00:33;;;;;;;16.15;13.40;;;-0.50;99.70;;;;;;5072228;28;20144;-82
2021/12/23 02:03:00;;;;;;;18.08;13.35;;;-0.40;99.80;;;;;;5070193;28;20048;-72
2021/12/23 02:05:26;;;;;;;19.27;13.80;;;-0.50;99.70;;;;;;5073581;28;20565;-80
2021/12/23 02:07:52;;;;;;;18.13;13.88;;;-0.50;99.70;;;;;;5055816;28;20120;-80
2021/12/23 02:10:18;;;;;;;17.25;13.68;;;-0.50;99.70;;;;;;5070304;28;20055;-80
2021/12/23 02:12:46;;;;;;;18.85;13.95;;;-0.50;99.70;;;;;;5072851;28;20476;-82
2021/12/23 02:15:13;;;;;;;18.17;13.25;;;-0.50;99.70;;;;;;5090906;28;20488;-82
2021/12/23 02:17:39;;;;;;;17.23;13.25;;;-0.40;99.70;;;;;;5072965;28;20044;-82
2021/12/23 02:20:07;;;;;;;17.58;13.55;;;-0.40;99.60;;;;;;5073681;28;20121;-73
2021/12/23 02:22:32;;;;;;;17.83;14.20;;;-0.40;99.60;;;;;;5071659;28;20576;-81
2021/12/23 02:24:58;;;;;;;17.20;12.82;;;-0.40;99.60;;;;;;5054141;28;20159;-76
2021/12/23 02:27:24;;;;;;;17.63;14.02;;;-0.40;99.60;;;;;;5073105;28;20039;-80
2021/12/23 02:29:49;;;;;;;18.08;13.10;;;-0.40;99.60;;;;;;5073055;28;20079;-74
2021/12/23 02:32:15;;;;;;;19.70;13.88;;;-0.40;99.60;;;;;;5055708;28;20044;-83
2021/12/23 02:34:41;;;;;;;17.95;12.90;;;-0.40;99.60;;;;;;5072969;28;20146;-83
2021/12/23 02:37:07;;;;;;;18.80;14.88;;;-0.40;99.60;;;;;;5051621;28;20094;-79
2021/12/23 02:39:33;;;;;;;17.55;13.85;;;-0.40;99.60;;;;;;5068655;28;20046;-79
2021/12/23 02:41:59;;;;;;;19.60;13.82;;;-0.40;99.60;;;;;;5054927;28;20142;-81
2021/12/23 02:44:24;;;;;;;20.10;13.10;;;-0.40;99.60;;;;;;5042118;28;20506;-80
2021/12/23 02:46:50;;;;;;;20.08;12.85;;;-0.40;99.60;;;;;;5072652;28;20412;-80
2021/12/23 02:49:16;;;;;;;17.88;13.32;;;-0.40;99.60;;;;;;5071447;28;20147;-80
2021/12/23 02:51:42;;;;;;;20.98;14.00;;;-0.40;99.50;;;;;;5073172;28;20056;-78
2021/12/23 02:54:07;;;;;;;19.15;13.48;;;-0.40;99.60;;;;;;5073361;28;20498;-79
2021/12/23 02:56:33;;;;;;;21.60;13.60;;;-0.40;99.60;;;;;;5071511;28;20131;-79
2021/12/23 02:58:59;;;;;;;18.60;13.93;;;-0.40;99.60;;;;;;5056341;28;20040;-76
2021/12/23 03:01:25;;;;;;;18.33;14.02;;;-0.40;99.60;;;;;;5056118;28;20089;-82
2021/12/23 03:03:51;;;;;;;21.27;14.20;;;-0.40;99.60;;;;;;5072510;28;20135;-79
2021/12/23 03:06:18;;;;;;;19.73;14.05;;;-0.50;99.50;;;;;;5072881;28;20063;-80
2021/12/23 03:08:50;;;;;;;18.17;14.13;;;-0.40;99.60;;;;;;5055808;28;20492;-80
2021/12/23 03:11:19;;;;;;;19.80;13.95;;;-0.40;99.50;;;;;;5053587;28;20100;-83
2021/12/23 03:13:46;;;;;;;19.88;14.10;;;-0.40;99.50;;;;;;5055237;28;20044;-83
2021/12/23 03:16:12;;;;;;;23.08;14.75;;;-0.40;99.60;;;;;;5055298;28;20055;-81
2021/12/23 03:18:39;;;;;;;19.25;14.60;;;-0.40;99.60;;;;;;5055125;28;20051;-73
2021/12/23 03:21:05;;;;;;;19.80;14.07;;;-0.40;99.70;;;;;;5072953;28;20043;-73
2021/12/23 03:23:32;;;;;;;17.58;13.93;;;-0.40;99.70;;;;;;5072897;28;20066;-81
2021/12/23 03:25:58;;;;;;;18.90;13.98;;;-0.50;99.70;;;;;;5071893;28;20079;-79
2021/12/23 03:28:25;;;;;;;19.42;14.68;;;-0.40;99.70;;;;;;5072289;28;20113;-83
2021/12/23 03:30:50;;;;;;;19.42;14.77;;;-0.40;99.70;;;;;;5072568;28;20044;-83
2021/12/23 03:33:19;;;;;;;20.98;15.32;;;-0.40;99.80;;;;;;5055668;28;20089;-74
2021/12/23 03:35:46;;;;;;;19.30;14.65;;;-0.40;99.80;;;;;;5072465;28;20044;-80
2021/12/23 03:38:12;;;;;;;20.73;14.48;;;-0.40;99.80;;;;;;5055784;28;20054;-80
2021/12/23 03:40:38;;;;;;;21.30;14.93;;;-0.40;99.80;;;;;;5072122;28;20075;-79
2021/12/23 03:43:04;;;;;;;19.55;14.45;;;-0.40;99.80;;;;;;5072437;28;20518;-73
2021/12/23 03:45:30;;;;;;;19.55;14.88;;;-0.40;99.70;;;;;;5071825;28;20072;-79
2021/12/23 03:47:56;;;;;;;22.15;14.38;;;-0.40;99.70;;;;;;5072064;28;20090;-72
2021/12/23 03:50:25;;;;;;;19.10;14.60;;;-0.30;99.70;;;;;;5072130;28;20080;-80
2021/12/23 03:52:52;;;;;;;21.30;14.90;;;-0.30;99.70;;;;;;5054726;28;20071;-80
2021/12/23 03:55:18;;;;;;;19.38;14.32;;;-0.30;99.60;;;;;;5071920;28;20409;-80
2021/12/23 03:57:46;;;;;;;24.60;15.18;;;-0.30;99.60;;;;;;5072224;28;20123;-74
2021/12/23 04:00:15;;;;;;;21.58;15.27;;;-0.30;99.60;;;;;;5070914;28;20138;-80
2021/12/23 04:02:41;;;;;;;21.95;15.50;;;-0.30;99.60;;;;;;5072555;28;20176;-83
2021/12/23 04:05:08;;;;;;;21.23;15.43;;;-0.30;99.50;;;;;;5055518;28;20044;-83
2021/12/23 04:07:34;;;;;;;23.65;15.60;;;-0.30;99.50;;;;;;5071667;28;20052;-83
2021/12/23 04:10:00;;;;;;;20.17;15.20;;;-0.20;99.50;;;;;;5068199;28;20044;-82
2021/12/23 04:12:25;;;;;;;22.52;15.45;;;-0.20;99.50;;;;;;5071213;28;20040;-71
2021/12/23 04:14:51;;;;;;;21.42;16.33;;;-0.20;99.40;;;;;;5071716;28;20403;-82
2021/12/23 04:17:17;;;;;;;23.50;16.00;;;-0.20;99.40;;;;;;5071708;28;20047;-82
2021/12/23 04:19:44;;;;;;;21.52;15.70;;;-0.20;99.40;;;;;;5055568;28;20040;-75
2021/12/23 04:22:09;;;;;;;19.67;14.52;;;-0.20;99.40;;;;;;5070990;28;20040;-82
2021/12/23 04:24:35;;;;;;;20.35;14.80;;;-0.20;99.30;;;;;;5075360;28;20040;-72
2021/12/23 04:27:01;;;;;;;23.55;15.98;;;-0.10;99.30;;;;;;5058764;28;20546;-82
2021/12/23 04:29:27;;;;;;;19.70;14.55;;;-0.10;99.30;;;;;;5058610;28;20043;-74
2021/12/23 04:31:52;;;;;;;22.80;15.60;;;-0.10;99.30;;;;;;5074379;28;20511;-71
2021/12/23 04:34:18;;;;;;;21.63;16.70;;;-0.10;99.30;;;;;;5075241;28;20047;-75
2021/12/23 04:36:44;;;;;;;21.25;15.27;;;-0.10;99.30;;;;;;5074260;28;20570;-73
2021/12/23 04:39:09;;;;;;;23.35;16.98;;;-0.10;99.30;;;;;;5055261;28;20040;-81
2021/12/23 04:41:35;;;;;;;20.42;15.35;;;-0.10;99.20;;;;;;5072162;28;20079;-82
2021/12/23 04:44:00;;;;;;;21.90;15.73;;;-0.10;99.20;;;;;;5039615;28;20597;-82
2021/12/23 04:46:26;;;;;;;23.33;15.85;;;-0.10;99.30;;;;;;5075481;28;20052;-81
2021/12/23 04:48:52;;;;;;;21.52;16.05;;;-0.10;99.20;;;;;;5057616;28;20058;-82
2021/12/23 04:51:18;;;;;;;22.52;16.15;;;-0.10;99.20;;;;;;5075214;28;20127;-86
2021/12/23 04:53:45;;;;;;;25.42;16.95;;;-0.10;99.20;;;;;;5075371;28;20091;-72
2021/12/23 04:56:13;;;;;;;22.90;16.73;;;0.00;99.30;;;;;;5073639;28;20078;-83
2021/12/23 04:58:41;;;;;;;21.88;16.17;;;0.00;99.30;;;;;;5074870;28;20492;-83
2021/12/23 05:01:09;;;;;;;22.60;16.80;;;0.00;99.30;;;;;;5075269;28;20051;-84
2021/12/23 05:03:34;;;;;;;23.00;16.20;;;0.00;99.30;;;;;;5073596;28;20089;-84
2021/12/23 05:06:00;;;;;;;26.27;17.50;;;0.00;99.30;;;;;;5074330;28;20044;-84
2021/12/23 05:08:26;;;;;;;23.20;17.00;;;0.00;99.30;;;;;;5074669;28;20051;-85
2021/12/23 05:10:51;;;;;;;23.15;16.73;;;0.00;99.30;;;;;;5074289;28;20055;-85
2021/12/23 05:13:17;;;;;;;24.02;17.00;;;0.10;99.40;;;;;;5074788;28;20177;-85
2021/12/23 05:15:43;;;;;;;21.15;14.77;;;0.10;99.30;;;;;;5074209;28;20036;-84
2021/12/23 05:18:09;;;;;;;21.85;15.23;;;0.00;99.30;;;;;;5074372;28;20036;-89
2021/12/23 05:20:35;;;;;;;21.98;16.20;;;0.10;99.30;;;;;;5075220;28;20153;-73
2021/12/23 05:23:01;;;;;;;21.48;16.77;;;0.10;99.30;;;;;;5057663;28;20083;-82
2021/12/23 05:25:26;;;;;;;24.63;17.75;;;0.10;99.30;;;;;;5057161;28;20075;-82
2021/12/23 05:27:54;;;;;;;27.95;20.20;;;0.10;99.30;;;;;;5057968;28;20062;-82
2021/12/23 05:30:21;;;;;;;31.33;23.98;;;0.10;99.30;;;;;;5074492;28;20048;-82
2021/12/23 05:32:47;;;;;;;24.23;18.17;;;0.10;99.20;;;;;;5048836;28;20143;-81
2021/12/23 05:35:15;;;;;;;23.63;17.67;;;0.10;99.20;;;;;;5063935;28;20496;-84
2021/12/23 05:37:41;;;;;;;22.75;17.35;;;0.10;99.20;;;;;;5074010;28;20484;-84
2021/12/23 05:40:09;;;;;;;23.30;17.83;;;0.10;99.20;;;;;;5056745;28;20040;-84
2021/12/23 05:42:35;;;;;;;26.67;18.30;;;0.20;99.20;;;;;;5041153;28;20067;-83
2021/12/23 05:45:00;;;;;;;22.05;16.33;;;0.10;99.10;;;;;;5073044;28;20451;-81
2021/12/23 05:47:26;;;;;;;25.60;18.42;;;0.10;99.00;;;;;;5074156;28;20446;-79
2021/12/23 05:49:52;;;;;;;23.40;18.17;;;0.10;98.90;;;;;;5073557;28;20459;-79
2021/12/23 05:52:17;;;;;;;25.30;18.15;;;0.20;98.90;;;;;;5073528;28;20455;-85
2021/12/23 05:54:43;;;;;;;25.58;18.55;;;0.10;98.80;;;;;;5057967;28;20399;-86
2021/12/23 05:57:09;;;;;;;24.50;17.27;;;0.20;98.80;;;;;;5054735;28;20044;-68
2021/12/23 05:59:35;;;;;;;21.83;17.02;;;0.10;98.80;;;;;;5037234;28;20028;-83
2021/12/23 06:02:07;;;;;;;24.60;17.75;;;0.10;98.80;;;;;;5071825;28;20047;-81
2021/12/23 06:04:33;;;;;;;26.65;17.55;;;0.10;98.70;;;;;;5073298;28;20038;-82
2021/12/23 06:07:00;;;;;;;27.02;17.80;;;0.10;98.70;;;;;;5073083;28;20052;-69
2021/12/23 06:09:25;;;;;;;23.92;17.80;;;0.20;98.80;;;;;;5057568;28;20040;-69
2021/12/23 06:11:51;;;;;;;24.45;18.17;;;0.10;98.70;;;;;;5073705;28;20047;-86
2021/12/23 06:14:16;;;;;;;25.85;17.35;;;0.20;98.80;;;;;;5057430;28;20123;-86
2021/12/23 06:16:43;;;;;;;22.60;17.27;;;0.20;98.80;;;;;;5073888;28;20071;-84
2021/12/23 06:19:09;;;;;;;24.30;17.50;;;0.10;98.60;;;;;;5073831;28;20048;-79
2021/12/23 06:21:34;;;;;;;24.48;17.25;;;0.10;98.60;;;;;;5072968;28;20056;-70
2021/12/23 06:24:03;;;;;;;24.35;18.40;;;0.10;98.60;;;;;;5057108;28;20036;-83
2021/12/23 06:26:29;;;;;;;26.23;18.45;;;0.10;98.70;;;;;;5057242;28;20514;-71
2021/12/23 06:28:55;;;;;;;25.58;17.48;;;0.20;98.70;;;;;;5073542;28;20153;-87
2021/12/23 06:31:21;;;;;;;24.05;17.75;;;0.20;98.70;;;;;;5055892;28;20132;-77
2021/12/23 06:33:46;;;;;;;27.05;18.80;;;0.10;98.60;;;;;;5053386;28;20078;-83
2021/12/23 06:36:13;;;;;;;23.92;17.80;;;0.20;98.70;;;;;;5040515;28;20043;-85
2021/12/23 06:38:41;;;;;;;24.45;18.02;;;0.20;98.60;;;;;;5073275;28;20040;-83
2021/12/23 06:41:06;;;;;;;23.17;17.40;;;0.20;98.50;;;;;;5072967;28;20442;-82
2021/12/23 06:43:32;;;;;;;22.85;17.42;;;0.20;98.50;;;;;;5073304;28;20040;-85
2021/12/23 06:45:57;;;;;;;25.67;18.10;;;0.20;98.50;;;;;;5055768;28;20067;-83
2021/12/23 06:48:23;;;;;;;23.65;18.45;;;0.30;98.50;;;;;;5071804;28;20048;-68
2021/12/23 06:50:53;;;;;;;26.40;18.80;;;0.20;98.40;;;;;;5063946;28;20052;-68
2021/12/23 06:53:19;;;;;;;19.75;16.20;;;0.30;98.50;;;;;;5073955;28;20132;-68
2021/12/23 06:55:45;;;;;;;25.30;17.52;;;0.30;98.60;;;;;;5073484;28;20127;-86
2021/12/23 06:58:11;;;;;;;25.95;18.13;;;0.30;98.50;;;;;;5073818;28;20138;-84
2021/12/23 07:00:37;;;;;;;24.33;18.23;;;0.30;98.50;;;;;;5073061;28;20093;-84
2021/12/23 07:03:03;;;;;;;25.23;18.42;;;0.40;98.40;;;;;;5070599;28;20036;-87
2021/12/23 07:05:29;;;;;;;24.63;17.38;;;0.40;98.40;;;;;;5073970;28;20047;-85
2021/12/23 07:07:57;;;;;;;23.33;18.05;;;0.40;98.40;;;;;;5057006;28;20047;-87
2021/12/23 07:10:28;;;;;;;26.70;18.40;;;0.40;98.20;;;;;;5073678;28;20458;-86
2021/12/23 07:12:55;;;;;;;23.88;17.30;;;0.40;98.30;;;;;;5074080;28;20040;-72
2021/12/23 07:15:23;;;;;;;23.70;17.95;;;0.40;98.20;;;;;;5074074;28;20496;-86
2021/12/23 07:17:49;;;;;;;25.20;18.17;;;0.40;98.20;;;;;;5073000;28;20504;-80
2021/12/23 07:20:15;;;;;;;25.10;18.63;;;0.40;98.10;;;;;;5073389;28;20044;-83
2021/12/23 07:22:41;;;;;;;27.92;18.90;;;0.50;98.20;;;;;;5072849;28;20043;-86
2021/12/23 07:25:07;;;;;;;25.92;18.55;;;0.50;98.30;;;;;;5072899;28;20055;-86
2021/12/23 07:27:33;;;;;;;24.02;17.77;;;0.50;98.20;;;;;;5073083;28;20137;-85
2021/12/23 07:29:59;;;;;;;24.95;18.50;;;0.40;98.20;;;;;;5073074;28;20087;-80
2021/12/23 07:32:25;;;;;;;24.42;18.80;;;0.50;98.20;;;;;;5056222;28;20063;-82
2021/12/23 07:34:50;;;;;;;23.30;18.08;;;0.40;98.10;;;;;;5073811;28;20040;-86
2021/12/23 07:37:18;;;;;;;23.42;17.50;;;0.50;98.20;;;;;;5073466;28;20492;-83
2021/12/23 07:39:44;;;;;;;23.77;17.30;;;0.50;98.20;;;;;;5055572;28;20047;-85
2021/12/23 07:42:15;;;;;;;25.33;18.67;;;0.50;98.10;;;;;;5055327;28;20044;-84
2021/12/23 07:44:41;;;;;;;22.58;17.35;;;0.60;98.10;;;;;;5072521;28;20044;-84
2021/12/23 07:47:08;;;;;;;25.42;18.70;;;0.60;98.00;;;;;;5073045;28;20111;-79
2021/12/23 07:49:33;;;;;;;25.98;19.63;;;0.60;98.00;;;;;;5054730;28;20054;-71
2021/12/23 07:51:59;;;;;;;26.92;19.23;;;0.60;97.90;;;;;;5066045;28;20134;-71
2021/12/23 07:54:25;;;;;;;24.23;19.77;;;0.60;97.90;;;;;;5073102;28;20042;-74
2021/12/23 07:56:53;;;;;;;29.63;20.15;;;0.50;97.90;;;;;;5072862;28;20234;-84
2021/12/23 07:59:18;;;;;;;28.77;21.58;;;0.60;98.10;;;;;;5075709;28;20040;-73
2021/12/23 08:01:44;;;;;;;28.02;20.58;;;0.50;98.10;;;;;;5058216;28;20054;-84
2021/12/23 08:04:11;;;;;;;29.42;21.50;;;0.60;98.30;;;;;;5058863;28;20558;-82
2021/12/23 08:06:36;;;;;;;30.98;22.23;;;0.60;98.40;;;;;;5073703;28;20071;-80
2021/12/23 08:09:03;;;;;;;30.33;22.08;;;0.60;98.50;;;;;;5058706;28;20039;-83
2021/12/23 08:11:28;;;;;;;29.85;22.08;;;0.60;98.50;;;;;;5076041;28;20059;-71
2021/12/23 08:13:54;;;;;;;30.70;22.40;;;0.60;98.50;;;;;;5075218;28;20492;-82
2021/12/23 08:16:19;;;;;;;33.35;24.05;;;0.60;98.50;;;;;;5075903;28;20074;-75
2021/12/23 08:18:45;;;;;;;34.92;23.80;;;0.60;98.40;;;;;;5075513;28;20040;-84
2021/12/23 08:21:11;;;;;;;34.53;25.00;;;0.60;98.40;;;;;;5093929;28;20048;-85
2021/12/23 08:23:36;;;;;;;34.83;24.05;;;0.50;98.60;;;;;;5075996;28;20630;-82
2021/12/23 08:26:06;;;;;;;36.78;25.02;;;0.60;98.60;;;;;;5093594;28;20052;-78
2021/12/23 08:28:32;;;;;;;35.47;25.55;;;0.60;98.70;;;;;;5092936;28;20044;-83
2021/12/23 08:30:58;;;;;;;33.35;24.38;;;0.60;98.70;;;;;;5074984;28;20400;-84
2021/12/23 08:33:24;;;;;;;38.08;26.15;;;0.60;98.70;;;;;;5076148;28;20047;-85
2021/12/23 08:35:50;;;;;;;35.05;23.83;;;0.70;98.90;;;;;;5075282;28;20622;-72
2021/12/23 08:38:16;;;;;;;32.13;24.83;;;0.70;98.90;;;;;;5070625;28;20041;-86
2021/12/23 08:40:41;;;;;;;40.20;25.70;;;0.70;98.90;;;;;;5068409;28;20048;-79
2021/12/23 08:43:07;;;;;;;38.45;25.27;;;0.70;98.80;;;;;;5075524;28;20063;-84
2021/12/23 08:45:36;;;;;;;37.08;25.52;;;0.70;98.90;;;;;;5073960;28;20047;-82
2021/12/23 08:48:02;;;;;;;35.42;25.73;;;0.70;98.90;;;;;;5071228;28;20052;-83
2021/12/23 08:50:30;;;;;;;41.78;27.30;;;0.80;98.90;;;;;;5074384;28;20048;-76
2021/12/23 08:52:57;;;;;;;38.45;26.45;;;0.80;99.00;;;;;;5057780;28;20036;-84
2021/12/23 08:55:24;;;;;;;39.65;26.83;;;0.80;99.00;;;;;;5074449;28;20093;-82
2021/12/23 08:57:50;;;;;;;43.75;27.30;;;0.80;99.00;;;;;;5058423;28;20128;-80
2021/12/23 09:00:19;;;;;;;41.75;28.25;;;0.80;99.10;;;;;;5075348;28;20091;-74
2021/12/23 09:02:46;;;;;;;42.85;27.30;;;0.80;99.10;;;;;;5074608;28;20040;-85
2021/12/23 09:05:12;;;;;;;44.40;28.58;;;0.80;99.10;;;;;;5054670;28;20124;-80
2021/12/23 09:07:38;;;;;;;47.45;28.67;;;0.80;99.20;;;;;;5070165;28;20044;-75
2021/12/23 09:10:07;;;;;;;42.25;28.63;;;0.80;99.40;;;;;;5073610;28;20447;-78
2021/12/23 09:12:33;;;;;;;44.70;28.63;;;0.80;99.40;;;;;;5074599;28;20039;-82
2021/12/23 09:14:59;;;;;;;44.70;28.73;;;0.90;99.50;;;;;;5073721;28;20054;-81
2021/12/23 09:17:25;;;;;;;43.97;28.88;;;0.90;99.60;;;;;;5091541;28;20373;-73
2021/12/23 09:19:51;;;;;;;43.92;28.88;;;0.90;99.60;;;;;;5074924;28;20670;-82
2021/12/23 09:22:17;;;;;;;47.50;30.20;;;0.90;99.60;;;;;;5073066;28;20043;-82
2021/12/23 09:24:45;;;;;;;47.60;29.42;;;0.90;99.70;;;;;;5073675;28;20040;-83
2021/12/23 09:27:24;;;;;;;47.50;28.40;;;1.00;99.80;;;;;;5073470;28;20039;-82
2021/12/23 09:35:02;;;;;;;46.58;29.33;;;1.10;99.90;;;;;;5072790;28;20044;-81
2021/12/23 09:37:28;;;;;;;46.15;29.70;;;1.10;99.90;;;;;;5068783;28;20066;-80
2021/12/23 09:39:57;;;;;;;43.05;28.30;;;1.10;99.70;;;;;;5064730;28;20043;-73
2021/12/23 09:42:33;;;;;;;48.55;30.17;;;1.10;99.80;;;;;;5073062;28;20132;-75
2021/12/23 09:45:04;;;;;;;46.22;29.27;;;1.10;99.90;;;;;;5056662;28;20578;-73
2021/12/23 09:47:33;;;;;;;48.92;30.10;;;1.10;99.90;;;;;;5073852;28;20726;-80
2021/12/23 09:50:02;;;;;;;41.92;27.20;;;1.20;99.90;;;;;;5072523;28;20135;-81
2021/12/23 09:52:31;;;;;;;44.03;30.38;;;1.20;99.90;;;;;;5056103;28;20044;-83
2021/12/23 09:54:58;;;;;;;44.38;28.92;;;1.20;99.90;;;;;;5073714;28;20097;-81
2021/12/23 09:57:24;;;;;;;42.83;29.33;;;1.30;99.90;;;;;;5073548;28;20056;-77
2021/12/23 09:59:50;;;;;;;48.88;30.25;;;1.30;99.90;;;;;;5072571;28;20456;-84
2021/12/23 10:02:15;;;;;;;46.30;29.00;;;1.30;99.90;;;;;;5073231;28;20058;-83
2021/12/23 10:04:41;;;;;;;47.70;30.25;;;1.30;99.90;;;;;;5073814;28;20036;-89
2021/12/23 10:07:07;;;;;;;49.33;30.10;;;1.30;99.90;;;;;;5057924;28;20036;-80
2021/12/23 10:10:38;;;;;;;44.25;28.85;;;1.40;99.90;;;;;;5055934;28;20430;-72
2021/12/23 10:30:38;;;;;;;48.75;28.95;;;1.50;99.90;;;;;;5056066;28;20041;-73
2021/12/23 10:38:45;;;;;;;45.10;30.08;;;1.50;99.90;;;;;;5066379;28;20036;-81
2021/12/23 10:41:18;;;;;;;45.42;28.08;;;1.50;99.90;;;;;;5074868;28;20048;-79
2021/12/23 10:43:54;;;;;;;46.75;28.45;;;1.50;99.90;;;;;;5073355;28;20055;-74
2021/12/23 10:46:27;;;;;;;45.17;29.23;;;1.60;99.90;;;;;;5056916;28;20052;-94
2021/12/23 10:49:08;;;;;;;46.85;30.00;;;1.60;99.90;;;;;;5039608;28;20084;-93
2021/12/23 10:52:04;;;;;;;44.75;28.50;;;1.60;99.90;;;;;;5046816;28;20028;-92
2021/12/23 11:00:21;;;;;;;42.63;27.83;;;1.60;99.90;;;;;;5074461;28;20040;-91
2021/12/23 11:06:02;;;;;;;49.55;29.77;;;1.70;99.90;;;;;;5056589;28;20052;-86
2021/12/23 11:36:21;;;;;;;46.65;29.90;;;1.80;99.90;;;;;;5076114;28;20488;-78
2021/12/23 11:39:06;;;;;;;44.20;29.42;;;1.90;99.90;;;;;;5076222;28;20098;-77
2021/12/23 11:41:36;;;;;;;43.88;28.67;;;1.90;99.90;;;;;;5076845;28;20431;-78
2021/12/23 11:44:06;;;;;;;41.40;28.40;;;1.90;99.90;;;;;;5075600;28;20070;-78
2021/12/23 11:46:43;;;;;;;43.20;29.48;;;1.90;99.90;;;;;;5055640;28;20181;-79
2021/12/23 11:49:12;;;;;;;44.00;28.83;;;2.00;99.90;;;;;;5058438;28;20044;-78
2021/12/23 11:54:07;;;;;;;45.55;28.30;;;2.00;99.90;;;;;;5086852;28;20055;-79
2021/12/23 11:56:39;;;;;;;45.13;30.02;;;2.00;99.90;;;;;;5071911;28;20051;-78
2021/12/23 11:59:09;;;;;;;48.58;29.52;;;2.00;99.90;;;;;;5075056;28;20504;-72
2021/12/23 12:01:44;;;;;;;47.28;30.27;;;2.00;99.90;;;;;;5058316;28;20388;-72
2021/12/23 12:04:13;;;;;;;42.88;27.65;;;2.00;99.90;;;;;;5074774;28;20051;-80
2021/12/23 12:06:45;;;;;;;44.92;30.02;;;2.00;99.90;;;;;;5067866;28;20044;-75
2021/12/23 12:09:30;;;;;;;44.80;30.27;;;1.90;99.90;;;;;;5040559;28;20055;-80
2021/12/23 12:11:59;;;;;;;45.97;30.05;;;2.00;99.90;;;;;;5063515;28;20316;-79
2021/12/23 12:14:39;;;;;;;45.47;29.25;;;2.00;99.90;;;;;;5047328;28;20063;-77
2021/12/23 12:17:23;;;;;;;47.17;28.98;;;2.00;99.90;;;;;;5064698;28;20109;-71
2021/12/23 12:19:56;;;;;;;45.95;28.48;;;2.00;99.90;;;;;;5054752;28;20135;-77
2021/12/23 12:22:44;;;;;;;45.55;29.02;;;2.00;99.90;;;;;;5075502;28;20557;-80
2021/12/23 12:25:09;;;;;;;43.83;28.63;;;1.90;99.90;;;;;;5057626;28;20135;-79
2021/12/23 12:27:35;;;;;;;47.17;31.23;;;1.90;99.90;;;;;;5075953;28;20127;-86
2021/12/23 12:30:10;;;;;;;45.90;29.35;;;1.90;99.90;;;;;;5076149;28;20578;-87
2021/12/23 12:32:36;;;;;;;50.67;30.42;;;2.00;99.90;;;;;;5076451;28;20427;-81
2021/12/23 12:35:13;;;;;;;47.83;30.23;;;1.90;99.90;;;;;;5059241;28;20080;-84
2021/12/23 12:37:46;;;;;;;46.05;29.13;;;1.90;99.90;;;;;;5058914;28;20381;-82
2021/12/23 12:40:12;;;;;;;48.90;28.67;;;1.80;99.90;;;;;;5058628;28;20139;-82
2021/12/23 12:42:43;;;;;;;44.13;27.70;;;1.90;99.90;;;;;;5058329;28;20126;-84
2021/12/23 12:45:19;;;;;;;46.30;29.23;;;1.80;99.90;;;;;;5074455;28;20048;-70
2021/12/23 12:47:54;;;;;;;43.28;28.10;;;1.90;99.90;;;;;;5074825;28;20101;-85
2021/12/23 12:50:25;;;;;;;48.40;31.08;;;1.90;99.90;;;;;;5075408;28;20054;-70
2021/12/23 12:52:54;;;;;;;44.90;27.65;;;1.80;99.90;;;;;;5074301;28;20067;-83
2021/12/23 12:55:28;;;;;;;49.78;29.85;;;1.80;99.90;;;;;;5074695;28;20051;-83
2021/12/23 12:57:54;;;;;;;44.17;29.10;;;1.80;99.90;;;;;;5074266;28;20127;-82
2021/12/23 13:00:42;;;;;;;45.60;28.77;;;1.70;99.90;;;;;;5057126;28;20083;-73
2021/12/23 13:03:12;;;;;;;50.83;30.20;;;1.80;99.90;;;;;;5058383;28;20040;-76
2021/12/23 13:05:44;;;;;;;46.40;29.48;;;1.80;99.90;;;;;;5075239;28;20036;-75
2021/12/23 13:08:30;;;;;;;46.25;28.65;;;1.80;99.90;;;;;;5074276;28;20052;-81
2021/12/23 13:11:07;;;;;;;44.78;28.65;;;1.80;99.90;;;;;;5074635;28;20396;-70
2021/12/23 13:13:41;;;;;;;48.60;29.45;;;1.80;99.90;;;;;;5074014;28;20511;-81
2021/12/23 13:16:13;;;;;;;46.30;29.00;;;1.80;99.90;;;;;;5074838;28;20047;-80
2021/12/23 13:18:39;;;;;;;45.90;28.55;;;1.80;99.90;;;;;;5074830;28;20052;-81
2021/12/23 13:21:06;;;;;;;49.33;28.83;;;1.80;99.90;;;;;;5073842;28;20077;-72
2021/12/23 13:23:40;;;;;;;48.40;29.67;;;1.70;99.90;;;;;;5073181;28;20047;-77
2021/12/23 13:26:18;;;;;;;48.47;28.88;;;1.80;99.90;;;;;;5063960;28;20040;-78
2021/12/23 13:28:44;;;;;;;48.00;28.65;;;1.80;99.90;;;;;;5054126;28;20503;-78
2021/12/23 13:31:25;;;;;;;46.65;28.85;;;1.80;99.90;;;;;;5038113;28;20131;-77
2021/12/23 13:34:05;;;;;;;46.25;28.73;;;1.80;99.90;;;;;;5054588;28;20086;-77
2021/12/23 13:36:44;;;;;;;43.80;28.45;;;1.90;99.90;;;;;;5053887;28;20493;-77
2021/12/23 13:39:14;;;;;;;45.17;28.38;;;1.90;99.90;;;;;;5037823;28;20045;-78
2021/12/23 13:41:45;;;;;;;46.58;28.27;;;1.90;99.90;;;;;;5037232;28;20110;-79
2021/12/23 13:44:38;;;;;;;44.25;28.67;;;1.90;99.90;;;;;;5054461;28;20435;-78
2021/12/23 13:47:17;;;;;;;39.25;27.13;;;1.90;99.90;;;;;;5037958;28;20521;-74
2021/12/23 13:49:54;;;;;;;47.13;28.23;;;2.00;99.90;;;;;;5036900;28;20086;-77
2021/12/23 13:52:25;;;;;;;47.67;29.75;;;2.10;99.90;;;;;;5054194;28;20080;-76